Terminal Aerodrome Forecast
Issued by NWS

Home | Current Version | Previous Version | Text Only | Print | Product List | Glossary On
Versions: 1 2 3 4 5 6 7 8 9 10 11 12
000
FTUS44 KEPZ 190500
TAFTCS
TAF
KTCS 190520Z 1906/2006 31009KT P6SM FEW110
     FM191700 06010KT P6SM SCT100
     FM192100 19010G20KT P6SM BKN100
     FM200300 28010KT P6SM SCT100 BKN140=

USA.gov is the U.S. government's official web portal to all federal, state and local government web resources and services.